Glencoe, Maryland
Current Conditions -  °F | °C
As of 1:30 PM on Wednesday 26 Nov 2014 (Local Time) from KDMW Reporting Station
Light Snow Light Snow  
Wind Chill: 27°   Ceiling: NA
Heat Index: 34°   Visibility: 1mi
Dew Point: 32°   Wind: 8mph
Humidity: 93%   Direction: 10°N
Pressure: 29.9"   Gusts: NA
Location:  39.5472°N, 76.6725°W
Report Text: KDMW 261830Z AUTO 01007KT 1SM -SN OV 01/00 A2990 RMK AO2 P0004
Loading
Personal Weather Stations






























Interactive Weather Map New forecast layout! Learn more

10-Day Weather Forecast

Advertisements
Track Severe Weather on mobile